Time;durP1;ratioP1;P1;durP2;ratioP2;P2;SDS_P1;SDS_P2;PMS_P1;PMS_P2;Temp;Humidity;BMP_temperature;BMP_pressure;BME280_temperature;BME280_humidity;BME280_pressure;Samples;Min_cycle;Max_cycle;Signal;HPM_P1;HPM_P2
2022/02/12 00:00:56;;;;;;;4.20;3.45;;;6.60;99.90;;;;;;5048946;28;20275;-52
2022/02/12 00:03:25;;;;;;;2.88;2.58;;;6.60;99.90;;;;;;5065586;28;20507;-52
2022/02/12 00:05:53;;;;;;;4.72;2.80;;;6.60;99.90;;;;;;5069066;28;20669;-52
2022/02/12 00:08:22;;;;;;;3.50;2.88;;;6.60;99.90;;;;;;5068362;28;20239;-52
2022/02/12 00:10:50;;;;;;;4.47;3.15;;;6.60;99.90;;;;;;5069125;28;20231;-52
2022/02/12 00:13:18;;;;;;;5.93;3.05;;;6.60;99.90;;;;;;5064441;27;20211;-52
2022/02/12 00:15:47;;;;;;;4.00;3.05;;;6.60;99.90;;;;;;5068744;28;20220;-52
2022/02/12 00:18:16;;;;;;;3.47;2.75;;;6.60;99.90;;;;;;5066662;28;20298;-52
2022/02/12 00:20:44;;;;;;;3.50;2.72;;;6.60;99.90;;;;;;5067357;28;20208;-52
2022/02/12 00:23:14;;;;;;;8.10;3.88;;;6.60;99.90;;;;;;5068936;28;20247;-52
2022/02/12 00:25:42;;;;;;;4.57;3.25;;;6.60;99.90;;;;;;5068845;28;20617;-53
2022/02/12 00:28:10;;;;;;;5.00;3.35;;;6.60;99.90;;;;;;5066138;28;20882;-52
2022/02/12 00:30:38;;;;;;;4.13;3.10;;;6.60;99.90;;;;;;5067749;28;20302;-52
2022/02/12 00:33:10;;;;;;;5.78;3.33;;;6.60;99.90;;;;;;5068004;28;20215;-51
2022/02/12 00:35:38;;;;;;;3.25;2.90;;;6.60;99.90;;;;;;5065393;28;20251;-52
2022/02/12 00:38:06;;;;;;;9.13;3.80;;;6.60;99.90;;;;;;5068335;28;20237;-52
2022/02/12 00:40:34;;;;;;;5.30;3.28;;;6.60;99.90;;;;;;5068413;28;20252;-51
2022/02/12 00:43:04;;;;;;;7.10;3.85;;;6.60;99.90;;;;;;5067198;28;20219;-52
2022/02/12 00:45:33;;;;;;;5.07;2.80;;;6.60;99.90;;;;;;5068741;28;20738;-51
2022/02/12 00:48:01;;;;;;;4.15;2.83;;;6.60;99.90;;;;;;5068362;28;20240;-52
2022/02/12 00:50:30;;;;;;;6.97;3.63;;;6.60;99.90;;;;;;5060828;28;20277;-52
2022/02/12 00:52:58;;;;;;;8.88;3.20;;;6.60;99.90;;;;;;5068334;28;20229;-52
2022/02/12 00:55:26;;;;;;;3.80;2.83;;;6.60;99.90;;;;;;5068531;28;20287;-52
2022/02/12 00:57:54;;;;;;;5.25;3.05;;;6.60;99.90;;;;;;5067134;28;20816;-52
2022/02/12 01:00:22;;;;;;;4.32;2.88;;;6.60;99.90;;;;;;5061835;28;20532;-51
2022/02/12 01:02:51;;;;;;;5.43;3.85;;;6.60;99.90;;;;;;5071448;28;20306;-52
2022/02/12 01:05:19;;;;;;;4.07;2.85;;;6.50;99.90;;;;;;5065609;28;20203;-52
2022/02/12 01:07:49;;;;;;;5.00;3.55;;;6.50;99.90;;;;;;5071341;28;20224;-51
2022/02/12 01:10:17;;;;;;;4.20;2.63;;;6.50;99.90;;;;;;5072343;28;20218;-53
2022/02/12 01:12:45;;;;;;;4.07;3.15;;;6.50;99.90;;;;;;5072608;28;20644;-52
2022/02/12 01:15:14;;;;;;;3.38;2.53;;;6.50;99.90;;;;;;5065037;28;20193;-51
2022/02/12 01:17:42;;;;;;;3.75;2.67;;;6.50;99.90;;;;;;5072489;28;20627;-52
2022/02/12 01:20:11;;;;;;;6.60;2.85;;;6.50;99.90;;;;;;5070865;28;20220;-53
2022/02/12 01:22:40;;;;;;;5.53;3.28;;;6.50;99.90;;;;;;5056671;28;20228;-52
2022/02/12 01:25:10;;;;;;;7.72;3.10;;;6.50;99.90;;;;;;5072071;28;20567;-52
2022/02/12 01:27:38;;;;;;;4.70;2.97;;;6.50;99.90;;;;;;5064938;28;20584;-52
2022/02/12 01:30:08;;;;;;;5.43;3.10;;;6.50;99.90;;;;;;5071297;28;20228;-52
2022/02/12 01:32:37;;;;;;;7.10;3.05;;;6.50;99.90;;;;;;5072215;28;20237;-51
2022/02/12 01:35:07;;;;;;;7.38;4.82;;;6.50;99.90;;;;;;5067381;28;20575;-51
2022/02/12 01:37:35;;;;;;;3.47;3.10;;;6.50;99.90;;;;;;5072147;28;20225;-52
2022/02/12 01:40:05;;;;;;;5.97;3.17;;;6.50;99.90;;;;;;5071607;28;20225;-52
2022/02/12 01:42:35;;;;;;;5.38;2.85;;;6.50;99.90;;;;;;5056748;28;20232;-52
2022/02/12 01:45:03;;;;;;;5.78;3.17;;;6.50;99.90;;;;;;5065205;28;20218;-52
2022/02/12 01:47:31;;;;;;;3.72;2.47;;;6.50;99.90;;;;;;5071339;28;20279;-52
2022/02/12 01:50:00;;;;;;;4.75;3.17;;;6.50;99.90;;;;;;5069178;28;20216;-52
2022/02/12 01:52:31;;;;;;;5.95;3.30;;;6.50;99.90;;;;;;5071459;28;20231;-51
2022/02/12 01:55:00;;;;;;;4.60;3.38;;;6.50;99.90;;;;;;5070558;28;20184;-51
2022/02/12 01:57:28;;;;;;;6.03;3.40;;;6.50;99.90;;;;;;5069758;28;20211;-52
2022/02/12 01:59:58;;;;;;;8.75;3.22;;;6.40;99.90;;;;;;5071594;28;20247;-53
2022/02/12 02:02:27;;;;;;;3.60;2.85;;;6.40;99.90;;;;;;5071559;27;20236;-52
2022/02/12 02:04:55;;;;;;;3.35;2.70;;;6.40;99.90;;;;;;5066834;28;20662;-52
2022/02/12 02:07:23;;;;;;;5.68;2.97;;;6.40;99.90;;;;;;5071589;27;20228;-51
2022/02/12 02:09:52;;;;;;;7.22;3.63;;;6.40;99.90;;;;;;5071251;28;20204;-51
2022/02/12 02:12:20;;;;;;;4.65;3.03;;;6.40;99.90;;;;;;5069597;28;20212;-51
2022/02/12 02:14:49;;;;;;;4.47;2.60;;;6.40;99.90;;;;;;5063800;28;20192;-51
2022/02/12 02:17:19;;;;;;;3.53;2.88;;;6.40;99.90;;;;;;5070891;28;20285;-52
2022/02/12 02:19:47;;;;;;;5.55;3.25;;;6.40;99.90;;;;;;5069462;28;20250;-52
2022/02/12 02:22:16;;;;;;;12.90;3.33;;;6.40;99.90;;;;;;5070056;28;20208;-52
2022/02/12 02:24:46;;;;;;;6.25;3.60;;;6.40;99.90;;;;;;5069846;28;20705;-52
2022/02/12 02:27:15;;;;;;;4.35;2.88;;;6.40;99.90;;;;;;5071026;27;20655;-52
2022/02/12 02:29:45;;;;;;;3.80;2.70;;;6.40;99.90;;;;;;5060162;28;20614;-52
2022/02/12 02:32:14;;;;;;;5.18;3.65;;;6.40;99.90;;;;;;5070759;28;20749;-51
2022/02/12 02:34:50;;;;;;;4.13;3.08;;;6.40;99.90;;;;;;5070436;28;20192;-51
2022/02/12 02:37:19;;;;;;;4.72;2.85;;;6.40;99.90;;;;;;5070685;28;20217;-52
2022/02/12 02:39:48;;;;;;;6.45;2.75;;;6.40;99.90;;;;;;5070700;28;20235;-52
2022/02/12 02:42:18;;;;;;;6.60;2.70;;;6.40;99.90;;;;;;5067332;28;20247;-53
2022/02/12 02:44:46;;;;;;;5.88;3.13;;;6.40;99.90;;;;;;5069531;28;20208;-51
2022/02/12 02:50:02;;;;;;;3.72;2.40;;;6.40;99.90;;;;;;5066634;28;20222;-52
2022/02/12 02:58:05;;;;;;;3.03;2.33;;;6.30;99.90;;;;;;5060242;28;20619;-52
2022/02/12 03:00:33;;;;;;;5.47;3.28;;;6.30;99.90;;;;;;5071111;28;20216;-52
2022/02/12 03:03:01;;;;;;;5.78;3.35;;;6.30;99.90;;;;;;5069592;28;20302;-52
2022/02/12 03:05:29;;;;;;;3.58;2.40;;;6.30;99.90;;;;;;5057324;28;20533;-52
2022/02/12 03:07:58;;;;;;;2.80;2.25;;;6.30;99.90;;;;;;5070596;28;20325;-51
2022/02/12 03:10:28;;;;;;;5.45;2.70;;;6.30;99.90;;;;;;5069753;28;20725;-53
2022/02/12 03:12:56;;;;;;;4.22;2.67;;;6.30;99.90;;;;;;5055837;27;20686;-52
2022/02/12 03:15:24;;;;;;;4.22;3.35;;;6.30;99.90;;;;;;5068477;28;20184;-52
2022/02/12 03:17:52;;;;;;;4.53;2.38;;;6.30;99.90;;;;;;5069443;28;20417;-51
2022/02/12 03:20:21;;;;;;;3.88;2.22;;;6.30;99.90;;;;;;5068801;28;20254;-52
2022/02/12 03:22:49;;;;;;;7.05;3.17;;;6.30;99.90;;;;;;5069672;28;20219;-51
2022/02/12 03:25:17;;;;;;;4.07;2.78;;;6.30;99.90;;;;;;5068915;28;20231;-53
2022/02/12 03:27:52;;;;;;;6.60;2.53;;;6.30;99.90;;;;;;5067348;28;20702;-52
2022/02/12 03:30:20;;;;;;;2.85;2.35;;;6.30;99.90;;;;;;5070516;28;20212;-52
2022/02/12 03:32:48;;;;;;;3.97;3.28;;;6.30;99.90;;;;;;5069573;27;20693;-51
2022/02/12 03:35:17;;;;;;;5.55;2.90;;;6.30;99.90;;;;;;5059612;28;20192;-51
2022/02/12 03:37:45;;;;;;;6.90;2.67;;;6.30;99.90;;;;;;5069281;28;20219;-51
2022/02/12 03:40:14;;;;;;;4.85;2.60;;;6.30;99.90;;;;;;5069924;28;20213;-52
2022/02/12 03:42:42;;;;;;;4.70;2.22;;;6.30;99.90;;;;;;5058594;28;20238;-52
2022/02/12 03:45:12;;;;;;;4.25;2.85;;;6.30;99.90;;;;;;5069708;28;20227;-52
2022/02/12 03:47:40;;;;;;;4.97;2.65;;;6.30;99.90;;;;;;5069161;28;20294;-51
2022/02/12 03:50:10;;;;;;;4.72;2.33;;;6.30;99.90;;;;;;5061280;28;20213;-51
2022/02/12 03:52:38;;;;;;;3.70;2.17;;;6.30;99.90;;;;;;5069852;27;20246;-53
2022/02/12 03:55:08;;;;;;;4.88;2.50;;;6.30;99.90;;;;;;5071074;28;20590;-52
2022/02/12 03:57:37;;;;;;;3.13;2.50;;;6.30;99.90;;;;;;5059386;28;20296;-52
2022/02/12 04:00:06;;;;;;;2.92;2.20;;;6.30;99.90;;;;;;5070040;28;20211;-52
2022/02/12 04:02:39;;;;;;;4.20;2.17;;;6.30;99.90;;;;;;5068415;28;20226;-52
2022/02/12 04:05:09;;;;;;;7.82;2.85;;;6.30;99.90;;;;;;5064894;28;20273;-51
2022/02/12 04:07:38;;;;;;;2.95;2.20;;;6.30;99.90;;;;;;5068813;28;20296;-52
2022/02/12 04:10:07;;;;;;;3.80;2.58;;;6.30;99.90;;;;;;5069427;28;20294;-52
2022/02/12 04:12:35;;;;;;;5.00;2.15;;;6.20;99.90;;;;;;5066908;28;20228;-53
2022/02/12 04:15:04;;;;;;;2.45;1.75;;;6.20;99.90;;;;;;5062947;28;20253;-52
2022/02/12 04:17:34;;;;;;;3.15;2.00;;;6.20;99.90;;;;;;5069007;27;20270;-52
2022/02/12 04:20:04;;;;;;;2.60;2.15;;;6.20;99.90;;;;;;5065638;28;20920;-52
2022/02/12 04:22:33;;;;;;;3.40;2.70;;;6.20;99.90;;;;;;5068425;27;20223;-51
2022/02/12 04:25:02;;;;;;;4.35;2.15;;;6.20;99.90;;;;;;5068264;28;20612;-52
2022/02/12 04:27:30;;;;;;;3.47;2.42;;;6.20;99.90;;;;;;5062877;28;20357;-51
2022/02/12 04:29:58;;;;;;;3.70;2.90;;;6.20;99.90;;;;;;5059007;28;20736;-52
2022/02/12 04:32:27;;;;;;;9.50;5.43;;;6.20;99.90;;;;;;5069185;28;20227;-52
2022/02/12 04:34:55;;;;;;;5.22;2.72;;;6.20;99.90;;;;;;5066505;28;20196;-52
2022/02/12 04:37:25;;;;;;;4.70;2.53;;;6.20;99.90;;;;;;5068271;28;20283;-52
2022/02/12 04:39:53;;;;;;;5.22;2.65;;;6.20;99.90;;;;;;5068332;28;20230;-51
2022/02/12 04:42:21;;;;;;;7.22;2.90;;;6.20;99.90;;;;;;5068626;28;20211;-51
2022/02/12 04:44:51;;;;;;;3.97;2.40;;;6.20;99.90;;;;;;5053765;28;20698;-52
2022/02/12 04:47:21;;;;;;;3.10;2.78;;;6.20;99.90;;;;;;5064338;28;20303;-52
2022/02/12 04:49:50;;;;;;;5.32;2.78;;;6.20;99.90;;;;;;5063293;28;20212;-51
2022/02/12 04:52:20;;;;;;;6.25;3.13;;;6.20;99.90;;;;;;5068594;28;20270;-52
2022/02/12 04:54:49;;;;;;;2.97;2.40;;;6.20;99.90;;;;;;5067823;28;20664;-52
2022/02/12 04:57:18;;;;;;;3.97;2.60;;;6.10;99.90;;;;;;5063638;28;20285;-52
2022/02/12 04:59:46;;;;;;;4.50;2.70;;;6.10;99.90;;;;;;5068970;28;20215;-53
2022/02/12 05:02:14;;;;;;;4.60;2.75;;;6.10;99.90;;;;;;5068850;28;20748;-51
2022/02/12 05:04:42;;;;;;;5.72;3.05;;;6.10;99.90;;;;;;5066682;28;20199;-53
2022/02/12 05:07:10;;;;;;;4.32;2.40;;;6.10;99.90;;;;;;5069826;27;20303;-52
2022/02/12 05:09:39;;;;;;;6.75;3.13;;;6.10;99.90;;;;;;5070359;28;20679;-51
2022/02/12 05:12:09;;;;;;;3.95;2.40;;;6.10;99.90;;;;;;5064676;28;20298;-52
2022/02/12 05:14:38;;;;;;;5.40;2.40;;;6.10;99.90;;;;;;5069519;28;20195;-51
2022/02/12 05:17:07;;;;;;;2.50;2.05;;;6.10;99.90;;;;;;5061242;22;20220;-52
2022/02/12 05:19:36;;;;;;;4.40;3.10;;;6.10;99.90;;;;;;5068418;28;20207;-52
2022/02/12 05:22:04;;;;;;;3.80;2.65;;;6.10;99.90;;;;;;5088961;28;20789;-52
2022/02/12 05:24:32;;;;;;;5.07;2.92;;;6.10;99.90;;;;;;5088442;28;20278;-52
2022/02/12 05:27:00;;;;;;;4.60;2.97;;;6.10;99.90;;;;;;5085995;28;20306;-52
2022/02/12 05:29:30;;;;;;;8.00;2.75;;;6.10;99.90;;;;;;5067834;28;20240;-53
2022/02/12 05:31:58;;;;;;;2.85;2.10;;;6.10;99.90;;;;;;5085050;28;20216;-52
2022/02/12 05:34:26;;;;;;;4.05;2.85;;;6.10;99.90;;;;;;5075758;28;20270;-52
2022/02/12 05:36:54;;;;;;;4.78;3.65;;;6.10;99.90;;;;;;5067572;28;20657;-52
2022/02/12 05:39:22;;;;;;;5.57;3.10;;;6.10;99.90;;;;;;5068891;28;20212;-52
2022/02/12 05:41:50;;;;;;;5.10;2.40;;;6.10;99.90;;;;;;5067863;28;20224;-52
2022/02/12 05:44:19;;;;;;;4.03;2.70;;;6.10;99.90;;;;;;5067244;28;20180;-52
2022/02/12 05:46:49;;;;;;;5.00;2.33;;;6.00;99.90;;;;;;5067243;28;20234;-52
2022/02/12 05:49:17;;;;;;;3.75;2.10;;;6.00;99.90;;;;;;5063091;28;20188;-51
2022/02/12 05:51:47;;;;;;;2.50;2.10;;;6.10;99.90;;;;;;5080531;28;20752;-52
2022/02/12 05:54:15;;;;;;;5.05;2.55;;;6.00;99.90;;;;;;5071444;28;20249;-53
2022/02/12 05:56:43;;;;;;;4.13;2.30;;;6.00;99.90;;;;;;5071414;28;20243;-51
2022/02/12 05:59:13;;;;;;;2.55;2.05;;;6.00;99.90;;;;;;5070692;28;20259;-52
2022/02/12 06:01:42;;;;;;;4.65;2.72;;;6.00;99.90;;;;;;5070430;28;20787;-52
2022/02/12 06:04:12;;;;;;;3.00;2.20;;;6.00;99.90;;;;;;5070303;28;20211;-52
2022/02/12 06:06:40;;;;;;;6.28;2.10;;;6.00;99.90;;;;;;5071217;28;20337;-53
2022/02/12 06:09:08;;;;;;;4.97;2.72;;;6.00;99.90;;;;;;5070862;28;20196;-51
2022/02/12 06:11:36;;;;;;;2.53;2.20;;;6.00;99.90;;;;;;5069919;28;20302;-51
2022/02/12 06:14:04;;;;;;;3.95;2.72;;;6.00;99.90;;;;;;5075994;28;20222;-52
2022/02/12 06:16:32;;;;;;;3.30;2.03;;;6.00;99.90;;;;;;5090768;28;20223;-52
2022/02/12 06:19:00;;;;;;;4.65;2.30;;;6.00;99.90;;;;;;5074039;28;20242;-52
2022/02/12 06:21:29;;;;;;;4.03;2.28;;;6.00;99.90;;;;;;5071096;28;20215;-52
2022/02/12 06:23:57;;;;;;;3.92;2.05;;;6.00;99.90;;;;;;5071249;28;20229;-52
2022/02/12 06:26:27;;;;;;;3.15;2.00;;;6.00;99.90;;;;;;5068890;28;20257;-52
2022/02/12 06:28:57;;;;;;;5.22;2.00;;;6.00;99.90;;;;;;5066747;28;20286;-51
2022/02/12 06:31:25;;;;;;;4.32;2.15;;;6.00;99.90;;;;;;5070730;28;20216;-51
2022/02/12 06:33:53;;;;;;;2.78;2.03;;;6.00;99.90;;;;;;5069682;28;20233;-51
2022/02/12 06:36:21;;;;;;;3.60;1.80;;;6.00;99.90;;;;;;5071916;28;20610;-51
2022/02/12 06:38:51;;;;;;;4.72;3.00;;;6.00;99.90;;;;;;5090948;28;20211;-52
2022/02/12 06:41:19;;;;;;;3.45;2.38;;;6.00;99.90;;;;;;5090121;28;20269;-52
2022/02/12 06:43:47;;;;;;;5.85;2.40;;;5.90;99.90;;;;;;5075994;28;20276;-52
2022/02/12 06:46:16;;;;;;;5.35;2.42;;;5.90;99.90;;;;;;5069338;28;20187;-51
2022/02/12 06:48:45;;;;;;;6.38;2.10;;;5.90;99.90;;;;;;5070448;28;20208;-53
2022/02/12 06:51:15;;;;;;;2.97;2.38;;;5.90;99.90;;;;;;5065658;28;20610;-52
2022/02/12 06:53:44;;;;;;;2.83;2.60;;;5.90;99.90;;;;;;5070399;28;20211;-51
2022/02/12 06:56:15;;;;;;;4.30;2.47;;;5.90;99.90;;;;;;5069197;28;20832;-52
2022/02/12 06:58:43;;;;;;;4.18;1.80;;;5.90;99.90;;;;;;5090879;28;20249;-51
2022/02/12 07:01:12;;;;;;;3.70;2.28;;;5.90;99.90;;;;;;5089769;28;20217;-51
2022/02/12 07:03:40;;;;;;;3.95;1.80;;;5.90;99.90;;;;;;5088888;28;20219;-53
2022/02/12 07:06:09;;;;;;;4.35;2.05;;;5.90;99.90;;;;;;5090194;28;20187;-52
2022/02/12 07:08:38;;;;;;;9.38;3.28;;;5.90;99.90;;;;;;5089435;28;20219;-51
2022/02/12 07:11:08;;;;;;;5.03;2.30;;;5.90;99.90;;;;;;5082307;28;20203;-51
2022/02/12 07:13:38;;;;;;;3.85;2.30;;;5.90;99.90;;;;;;5055249;28;20216;-52
2022/02/12 07:16:06;;;;;;;4.30;2.20;;;5.90;99.90;;;;;;5070434;28;20219;-52
2022/02/12 07:18:34;;;;;;;2.20;1.77;;;5.90;99.90;;;;;;5069046;28;20208;-50
2022/02/12 07:21:02;;;;;;;3.90;1.98;;;5.90;99.90;;;;;;5069917;28;20230;-51
2022/02/12 07:23:31;;;;;;;2.65;2.10;;;5.90;99.90;;;;;;5067811;28;20216;-51
2022/02/12 07:25:59;;;;;;;4.60;2.72;;;5.90;99.90;;;;;;5069523;28;20211;-51
2022/02/12 07:28:29;;;;;;;4.75;2.60;;;5.80;99.90;;;;;;5068695;28;20223;-52
2022/02/12 07:30:59;;;;;;;5.30;2.80;;;5.90;99.90;;;;;;5069701;28;20223;-51
2022/02/12 07:33:28;;;;;;;7.60;2.17;;;5.90;99.90;;;;;;5070391;28;20233;-52
2022/02/12 07:35:56;;;;;;;5.03;1.83;;;5.80;99.90;;;;;;5089797;28;20183;-52
2022/02/12 07:38:24;;;;;;;3.20;2.10;;;5.90;99.90;;;;;;5089961;28;20287;-51
2022/02/12 07:40:53;;;;;;;3.78;1.88;;;5.80;99.90;;;;;;5089135;28;20329;-50
2022/02/12 07:43:21;;;;;;;4.00;2.08;;;5.80;99.90;;;;;;5089838;28;20317;-52
2022/02/12 07:45:49;;;;;;;6.00;2.45;;;5.80;99.90;;;;;;5089446;28;20606;-52
2022/02/12 07:48:19;;;;;;;4.05;1.73;;;5.80;99.90;;;;;;5088840;28;20643;-51
2022/02/12 07:50:48;;;;;;;4.10;2.00;;;5.80;99.90;;;;;;5075736;28;20249;-52
2022/02/12 07:53:16;;;;;;;3.58;1.88;;;5.80;99.90;;;;;;5086973;28;20230;-51
2022/02/12 07:55:45;;;;;;;5.75;1.75;;;5.80;99.90;;;;;;5088906;28;20581;-52
2022/02/12 07:58:14;;;;;;;3.65;2.20;;;5.80;99.90;;;;;;5088462;28;20222;-51
2022/02/12 08:00:42;;;;;;;4.05;1.90;;;5.80;99.90;;;;;;5089967;28;20717;-50
2022/02/12 08:03:10;;;;;;;2.63;1.52;;;5.80;99.90;;;;;;5053347;28;20231;-52
2022/02/12 08:05:40;;;;;;;5.03;1.90;;;5.80;99.90;;;;;;5049402;28;20287;-51
2022/02/12 08:08:09;;;;;;;2.92;1.92;;;5.80;99.90;;;;;;5049116;28;20228;-51
2022/02/12 08:13:24;;;;;;;4.13;2.08;;;5.80;99.90;;;;;;5052122;28;20706;-51
2022/02/12 08:15:53;;;;;;;4.68;2.28;;;5.80;99.90;;;;;;5068956;28;20196;-52
2022/02/12 08:18:22;;;;;;;1.83;1.35;;;5.80;99.90;;;;;;5069291;28;20222;-51
2022/02/12 08:20:51;;;;;;;5.50;1.70;;;5.80;99.90;;;;;;5088977;28;20214;-51
2022/02/12 08:23:20;;;;;;;5.63;1.90;;;5.80;99.90;;;;;;5089125;28;20238;-51
2022/02/12 08:25:49;;;;;;;5.38;2.15;;;5.80;99.90;;;;;;5089315;28;20238;-52
2022/02/12 08:28:19;;;;;;;3.35;2.30;;;5.80;99.90;;;;;;5088159;28;20229;-51
2022/02/12 08:30:47;;;;;;;3.42;2.17;;;5.80;99.90;;;;;;5081125;28;20396;-52
2022/02/12 08:33:15;;;;;;;8.35;2.83;;;5.80;99.90;;;;;;5086737;28;20227;-52
2022/02/12 08:35:56;;;;;;;2.17;1.63;;;5.80;99.90;;;;;;5087890;28;20195;-51
2022/02/12 08:38:24;;;;;;;1.90;1.50;;;5.70;99.90;;;;;;5088565;28;20230;-52
2022/02/12 08:40:53;;;;;;;2.45;1.65;;;5.70;99.90;;;;;;5089809;28;20214;-52
2022/02/12 08:43:21;;;;;;;3.50;2.10;;;5.80;99.90;;;;;;5087668;28;20207;-51
2022/02/12 08:45:51;;;;;;;2.63;1.95;;;5.80;99.90;;;;;;5089122;28;20599;-51
2022/02/12 08:48:20;;;;;;;2.03;1.70;;;5.70;99.90;;;;;;5087908;28;20241;-52
2022/02/12 08:50:49;;;;;;;3.28;2.65;;;5.70;99.90;;;;;;5089270;28;20263;-50
2022/02/12 08:53:19;;;;;;;6.10;2.10;;;5.70;99.90;;;;;;5089026;28;20223;-52
2022/02/12 08:55:47;;;;;;;4.90;2.05;;;5.70;99.90;;;;;;5069432;28;20219;-52
2022/02/12 08:58:16;;;;;;;2.97;2.22;;;5.70;99.90;;;;;;5083206;28;20246;-51
2022/02/12 09:00:44;;;;;;;3.20;2.50;;;5.70;99.90;;;;;;5088458;28;20780;-51
2022/02/12 09:03:17;;;;;;;3.85;3.45;;;5.80;99.90;;;;;;5068241;28;20217;-51
2022/02/12 09:05:45;;;;;;;6.60;2.65;;;5.80;99.90;;;;;;5089005;28;20187;-51
2022/02/12 09:08:14;;;;;;;4.50;2.53;;;5.70;99.90;;;;;;5088132;28;20622;-52
2022/02/12 09:10:45;;;;;;;2.42;2.15;;;5.80;99.90;;;;;;5088697;28;20254;-52
2022/02/12 09:13:14;;;;;;;3.25;2.10;;;5.80;99.90;;;;;;5088928;28;20222;-52
2022/02/12 09:15:42;;;;;;;5.30;2.20;;;5.80;99.90;;;;;;5089072;28;20278;-52
2022/02/12 09:18:12;;;;;;;3.30;2.05;;;5.80;99.90;;;;;;5080481;28;20312;-49
2022/02/12 09:20:41;;;;;;;7.03;2.25;;;5.80;99.90;;;;;;5086934;28;20545;-51
2022/02/12 09:23:09;;;;;;;6.28;2.30;;;5.80;99.90;;;;;;5088393;28;20219;-50
2022/02/12 09:25:37;;;;;;;5.85;2.47;;;5.80;99.90;;;;;;5089603;28;20191;-50
2022/02/12 09:28:07;;;;;;;4.57;2.90;;;5.80;99.90;;;;;;5090497;28;20219;-50
2022/02/12 09:30:38;;;;;;;2.65;2.17;;;5.80;99.90;;;;;;5089983;28;20219;-52
2022/02/12 09:33:07;;;;;;;5.75;2.75;;;5.80;99.90;;;;;;5092040;28;20223;-51
2022/02/12 09:35:53;;;;;;;2.95;1.77;;;5.80;99.90;;;;;;5093278;22;20183;-48
2022/02/12 09:38:22;;;;;;;3.13;1.67;;;5.80;99.90;;;;;;5031843;28;20217;-49
2022/02/12 09:40:53;;;;;;;3.38;1.90;;;5.80;99.90;;;;;;5027758;28;20213;-50
2022/02/12 09:43:27;;;;;;;3.10;2.55;;;5.90;99.90;;;;;;5048165;28;20277;-49
2022/02/12 09:46:25;;;;;;;3.58;2.25;;;5.90;99.90;;;;;;5048874;28;20224;-49
2022/02/12 09:48:54;;;;;;;3.83;2.47;;;5.90;99.90;;;;;;4984732;28;20225;-50
2022/02/12 09:51:25;;;;;;;6.53;2.45;;;5.90;99.90;;;;;;5026334;28;20217;-49
2022/02/12 09:53:55;;;;;;;4.75;2.00;;;5.90;99.90;;;;;;5013076;28;20603;-49
2022/02/12 09:56:24;;;;;;;3.78;2.80;;;5.90;99.90;;;;;;5027237;28;20197;-51
2022/02/12 09:58:55;;;;;;;6.10;1.63;;;5.90;99.90;;;;;;5028747;28;20209;-49
2022/02/12 10:01:23;;;;;;;2.03;1.83;;;5.90;99.90;;;;;;5027923;28;20312;-48
2022/02/12 10:03:53;;;;;;;3.35;1.90;;;5.90;99.90;;;;;;5011707;28;20557;-49
2022/02/12 10:06:41;;;;;;;3.20;2.15;;;5.90;99.90;;;;;;5029981;28;20192;-49
2022/02/12 10:09:11;;;;;;;4.25;2.35;;;5.90;99.90;;;;;;5031953;28;20209;-48
2022/02/12 10:11:42;;;;;;;2.55;1.80;;;5.90;99.90;;;;;;5029117;28;20272;-47
2022/02/12 10:14:15;;;;;;;2.78;2.00;;;5.90;99.90;;;;;;5028658;28;20197;-49
2022/02/12 10:17:00;;;;;;;2.85;2.25;;;5.90;99.90;;;;;;5028722;28;20217;-49
2022/02/12 10:19:31;;;;;;;2.28;2.05;;;5.90;99.90;;;;;;5024538;28;20217;-51
2022/02/12 10:22:08;;;;;;;6.68;1.95;;;5.90;99.90;;;;;;5019149;28;20221;-50
2022/02/12 10:24:50;;;;;;;3.65;2.33;;;5.90;99.90;;;;;;5030796;28;20186;-49
2022/02/12 10:27:20;;;;;;;7.38;2.08;;;5.90;99.90;;;;;;5032519;28;20220;-48
2022/02/12 10:29:51;;;;;;;5.68;1.75;;;5.90;99.90;;;;;;5030075;28;20784;-49
2022/02/12 10:32:21;;;;;;;3.88;1.80;;;5.90;99.90;;;;;;5031000;28;20241;-50
2022/02/12 10:34:58;;;;;;;4.13;1.90;;;5.90;99.90;;;;;;5027896;28;20193;-49
2022/02/12 10:37:28;;;;;;;4.97;1.88;;;5.90;99.90;;;;;;5025747;28;20235;-50
2022/02/12 10:39:59;;;;;;;6.60;2.50;;;5.90;99.90;;;;;;5028377;28;20746;-48
2022/02/12 10:42:32;;;;;;;3.53;2.00;;;5.90;99.90;;;;;;5027423;28;20244;-49
2022/02/12 10:45:18;;;;;;;3.67;1.83;;;5.90;99.90;;;;;;5030879;28;20189;-50
2022/02/12 10:47:48;;;;;;;7.35;3.53;;;5.90;99.90;;;;;;5026738;28;20727;-50
2022/02/12 10:50:20;;;;;;;7.20;2.70;;;5.90;99.90;;;;;;5009851;28;20529;-49
2022/02/12 10:52:55;;;;;;;4.30;2.65;;;5.90;99.90;;;;;;5023626;28;20213;-48
2022/02/12 10:55:31;;;;;;;3.70;2.30;;;5.90;99.90;;;;;;5011516;28;20190;-50
2022/02/12 10:58:02;;;;;;;7.30;2.05;;;5.90;99.90;;;;;;5022810;28;20219;-49
2022/02/12 11:00:33;;;;;;;5.60;3.15;;;5.90;99.90;;;;;;5030489;28;20208;-47
2022/02/12 11:03:08;;;;;;;5.60;2.20;;;5.90;99.90;;;;;;5028061;28;20773;-51
2022/02/12 11:05:42;;;;;;;5.53;2.40;;;6.00;99.90;;;;;;5023809;28;20204;-50
2022/02/12 11:08:13;;;;;;;3.60;2.42;;;5.90;99.90;;;;;;5005005;28;20228;-48
2022/02/12 11:10:42;;;;;;;4.30;2.65;;;5.90;99.90;;;;;;5026965;28;20230;-48
2022/02/12 11:13:11;;;;;;;6.75;2.35;;;5.90;99.90;;;;;;5020273;28;20562;-49
2022/02/12 11:15:42;;;;;;;8.80;2.88;;;5.90;99.90;;;;;;5017584;28;20193;-49
2022/02/12 11:18:15;;;;;;;4.80;2.35;;;5.90;99.90;;;;;;5026045;28;20213;-50
2022/02/12 11:20:46;;;;;;;4.80;2.92;;;5.90;99.90;;;;;;5021195;28;20223;-48
2022/02/12 11:23:28;;;;;;;8.35;2.78;;;5.90;99.90;;;;;;5028794;28;20692;-49
2022/02/12 11:26:49;;;;;;;7.05;2.42;;;5.90;99.90;;;;;;5012297;28;20217;-48
2022/02/12 11:29:36;;;;;;;3.30;2.15;;;5.90;99.90;;;;;;5023698;28;20796;-49
2022/02/12 11:32:13;;;;;;;5.65;2.30;;;5.90;99.90;;;;;;5019564;28;20228;-48
2022/02/12 11:35:24;;;;;;;7.25;2.70;;;5.90;99.90;;;;;;5019112;28;20197;-49
2022/02/12 11:37:53;;;;;;;6.30;2.42;;;5.90;99.90;;;;;;5029385;28;20224;-49
2022/02/12 11:40:30;;;;;;;5.10;2.50;;;5.80;99.90;;;;;;5026642;28;20213;-48
2022/02/12 11:43:00;;;;;;;7.60;3.08;;;5.80;99.90;;;;;;5029402;28;20229;-48
2022/02/12 11:45:39;;;;;;;5.60;2.95;;;5.90;99.90;;;;;;5029513;28;20193;-50
2022/02/12 11:48:31;;;;;;;3.72;2.65;;;5.80;99.90;;;;;;5019799;28;21080;-49
2022/02/12 11:51:38;;;;;;;4.82;2.25;;;5.90;99.90;;;;;;5022146;28;20620;-49
2022/02/12 11:54:56;;;;;;;4.63;2.67;;;5.90;99.90;;;;;;5029705;28;20209;-48
2022/02/12 11:57:58;;;;;;;7.40;2.40;;;5.90;99.90;;;;;;5023836;28;20662;-49
2022/02/12 12:00:56;;;;;;;4.80;2.60;;;5.90;99.90;;;;;;5027346;28;20208;-49
2022/02/12 12:03:31;;;;;;;7.03;2.40;;;5.90;99.90;;;;;;5013931;28;20303;-49
2022/02/12 12:09:40;;;;;;;4.38;2.35;;;5.90;99.90;;;;;;4989874;28;20214;-49
2022/02/12 12:12:40;;;;;;;5.78;2.60;;;5.90;99.90;;;;;;5028761;28;20217;-48
2022/02/12 12:15:30;;;;;;;2.97;2.10;;;5.90;99.90;;;;;;5020007;28;20217;-49
2022/02/12 12:18:00;;;;;;;2.78;2.05;;;5.90;99.90;;;;;;5005752;28;20221;-48
2022/02/12 12:20:36;;;;;;;4.10;2.00;;;5.90;99.90;;;;;;5024482;28;20282;-49
2022/02/12 12:23:35;;;;;;;6.57;2.15;;;5.90;99.90;;;;;;5027918;28;20224;-48
2022/02/12 12:26:12;;;;;;;4.75;1.85;;;5.90;99.90;;;;;;4966166;28;20270;-50
2022/02/12 12:32:52;;;;;;;4.43;2.28;;;5.90;99.90;;;;;;4898360;29;20290;-49
2022/02/12 12:37:08;;;;;;;3.60;2.00;;;5.90;99.90;;;;;;4871980;29;20222;-48
2022/02/12 12:44:29;;;;;;;2.97;2.05;;;5.90;99.90;;;;;;5012579;28;20225;-48
2022/02/12 12:47:06;;;;;;;4.40;1.52;;;5.90;99.90;;;;;;5012966;28;20228;-49
2022/02/12 12:50:04;;;;;;;3.95;2.05;;;5.90;99.90;;;;;;5014485;28;20636;-49
2022/02/12 12:53:15;;;;;;;2.72;1.58;;;5.90;99.90;;;;;;4993518;28;20253;-48
2022/02/12 12:55:47;;;;;;;4.07;2.00;;;5.90;99.90;;;;;;5020129;28;20226;-50
2022/02/12 12:58:37;;;;;;;4.65;2.42;;;5.90;99.90;;;;;;5020412;28;20692;-49
2022/02/12 13:01:12;;;;;;;2.58;2.20;;;5.90;99.90;;;;;;5032853;28;20569;-50
2022/02/12 13:04:14;;;;;;;;;;;;;;;;;;;;;
2022/02/12 13:06:50;;;;;;;4.60;2.05;;;5.90;99.90;;;;;;5031825;28;20308;-50
2022/02/12 13:09:19;;;;;;;2.90;1.73;;;5.90;99.90;;;;;;5034716;28;20284;-49
2022/02/12 13:11:48;;;;;;;3.75;2.00;;;5.90;99.90;;;;;;5026558;28;20703;-49
2022/02/12 13:14:16;;;;;;;3.53;1.75;;;5.90;99.90;;;;;;5031472;28;20272;-50
2022/02/12 13:16:59;;;;;;;2.80;2.00;;;6.00;99.90;;;;;;5031726;28;20292;-49
2022/02/12 13:19:29;;;;;;;2.83;1.60;;;5.90;99.90;;;;;;5020326;28;20223;-46
2022/02/12 13:22:00;;;;;;;3.95;1.70;;;5.90;99.90;;;;;;5023438;28;20235;-48
2022/02/12 13:24:35;;;;;;;5.43;2.50;;;5.90;99.90;;;;;;5034004;28;20189;-49
2022/02/12 13:27:04;;;;;;;2.38;1.90;;;5.90;99.90;;;;;;5033938;28;20220;-48
2022/02/12 13:29:34;;;;;;;3.10;1.75;;;5.90;99.90;;;;;;5030818;28;20300;-50
2022/02/12 13:32:07;;;;;;;6.47;2.15;;;6.00;99.90;;;;;;5032997;28;20271;-51
2022/02/12 13:34:59;;;;;;;3.13;1.67;;;6.00;99.90;;;;;;5017218;28;20260;-50
2022/02/12 13:41:21;;;;;;;3.15;1.52;;;6.00;99.90;;;;;;5013648;28;20704;-50
2022/02/12 13:44:09;;;;;;;3.50;1.65;;;6.00;99.90;;;;;;5027094;28;20692;-51
2022/02/12 13:50:44;;;;;;;2.70;1.45;;;6.00;99.90;;;;;;5022014;28;20213;-51
2022/02/12 13:53:20;;;;;;;1.50;1.40;;;5.90;99.90;;;;;;5033448;28;20225;-50